sensor_id;sensor_type;location;lat;lon;timestamp;P1;durP1;ratioP1;P2;durP2;ratioP2
75760;SDS011;64373;46.136;8.830;2023-12-14T00:00:24;4.47;;;2.80;;
75760;SDS011;64373;46.136;8.830;2023-12-14T00:02:50;5.22;;;2.85;;
75760;SDS011;64373;46.136;8.830;2023-12-14T00:05:15;3.30;;;2.17;;
75760;SDS011;64373;46.136;8.830;2023-12-14T00:07:41;3.75;;;2.10;;
75760;SDS011;64373;46.136;8.830;2023-12-14T00:10:06;7.43;;;3.78;;
75760;SDS011;64373;46.136;8.830;2023-12-14T00:12:32;5.93;;;3.33;;
75760;SDS011;64373;46.136;8.830;2023-12-14T00:14:58;3.90;;;2.38;;
75760;SDS011;64373;46.136;8.830;2023-12-14T00:17:23;4.60;;;2.63;;
75760;SDS011;64373;46.136;8.830;2023-12-14T00:19:49;3.50;;;2.35;;
75760;SDS011;64373;46.136;8.830;2023-12-14T00:22:14;3.42;;;2.03;;
75760;SDS011;64373;46.136;8.830;2023-12-14T00:24:40;4.68;;;2.35;;
75760;SDS011;64373;46.136;8.830;2023-12-14T00:27:05;4.88;;;2.40;;
75760;SDS011;64373;46.136;8.830;2023-12-14T00:29:31;2.65;;;1.92;;
75760;SDS011;64373;46.136;8.830;2023-12-14T00:31:56;3.30;;;1.90;;
75760;SDS011;64373;46.136;8.830;2023-12-14T00:34:22;4.47;;;2.75;;
75760;SDS011;64373;46.136;8.830;2023-12-14T00:36:47;3.05;;;2.00;;
75760;SDS011;64373;46.136;8.830;2023-12-14T00:39:13;4.07;;;2.53;;
75760;SDS011;64373;46.136;8.830;2023-12-14T00:41:38;3.72;;;2.20;;
75760;SDS011;64373;46.136;8.830;2023-12-14T00:44:03;5.22;;;3.10;;
75760;SDS011;64373;46.136;8.830;2023-12-14T00:46:29;3.13;;;2.22;;
75760;SDS011;64373;46.136;8.830;2023-12-14T00:48:54;3.78;;;2.13;;
75760;SDS011;64373;46.136;8.830;2023-12-14T00:51:20;3.78;;;2.20;;
75760;SDS011;64373;46.136;8.830;2023-12-14T00:53:45;3.20;;;1.98;;
75760;SDS011;64373;46.136;8.830;2023-12-14T00:56:11;3.30;;;2.13;;
75760;SDS011;64373;46.136;8.830;2023-12-14T00:58:36;2.58;;;1.88;;
75760;SDS011;64373;46.136;8.830;2023-12-14T01:01:02;3.13;;;1.95;;
75760;SDS011;64373;46.136;8.830;2023-12-14T01:03:27;2.72;;;1.90;;
75760;SDS011;64373;46.136;8.830;2023-12-14T01:05:53;3.13;;;1.92;;
75760;SDS011;64373;46.136;8.830;2023-12-14T01:08:18;3.22;;;2.00;;
75760;SDS011;64373;46.136;8.830;2023-12-14T01:10:43;2.90;;;1.45;;
75760;SDS011;64373;46.136;8.830;2023-12-14T01:13:09;3.00;;;1.80;;
75760;SDS011;64373;46.136;8.830;2023-12-14T01:15:35;2.80;;;1.60;;
75760;SDS011;64373;46.136;8.830;2023-12-14T01:18:00;2.95;;;1.95;;
75760;SDS011;64373;46.136;8.830;2023-12-14T01:20:25;3.25;;;2.05;;
75760;SDS011;64373;46.136;8.830;2023-12-14T01:22:51;3.78;;;2.10;;
75760;SDS011;64373;46.136;8.830;2023-12-14T01:25:16;2.45;;;1.60;;
75760;SDS011;64373;46.136;8.830;2023-12-14T01:27:42;2.65;;;1.80;;
75760;SDS011;64373;46.136;8.830;2023-12-14T01:30:07;3.22;;;1.90;;
75760;SDS011;64373;46.136;8.830;2023-12-14T01:32:33;3.17;;;1.90;;
75760;SDS011;64373;46.136;8.830;2023-12-14T01:34:58;2.78;;;1.83;;
75760;SDS011;64373;46.136;8.830;2023-12-14T01:37:24;3.10;;;2.13;;
75760;SDS011;64373;46.136;8.830;2023-12-14T01:39:49;3.10;;;1.48;;
75760;SDS011;64373;46.136;8.830;2023-12-14T01:42:14;2.88;;;1.60;;
75760;SDS011;64373;46.136;8.830;2023-12-14T01:44:40;3.65;;;2.08;;
75760;SDS011;64373;46.136;8.830;2023-12-14T01:47:05;2.67;;;1.50;;
75760;SDS011;64373;46.136;8.830;2023-12-14T01:49:31;2.47;;;1.63;;
75760;SDS011;64373;46.136;8.830;2023-12-14T01:51:56;3.20;;;1.88;;
75760;SDS011;64373;46.136;8.830;2023-12-14T01:54:22;3.05;;;1.58;;
75760;SDS011;64373;46.136;8.830;2023-12-14T01:56:47;2.00;;;1.38;;
75760;SDS011;64373;46.136;8.830;2023-12-14T01:59:13;3.35;;;1.75;;
75760;SDS011;64373;46.136;8.830;2023-12-14T02:01:45;1.88;;;1.55;;
75760;SDS011;64373;46.136;8.830;2023-12-14T02:04:12;1.60;;;1.10;;
75760;SDS011;64373;46.136;8.830;2023-12-14T02:06:38;2.47;;;1.60;;
75760;SDS011;64373;46.136;8.830;2023-12-14T02:09:04;1.73;;;1.13;;
75760;SDS011;64373;46.136;8.830;2023-12-14T02:11:30;2.08;;;1.20;;
75760;SDS011;64373;46.136;8.830;2023-12-14T02:13:55;1.92;;;1.20;;
75760;SDS011;64373;46.136;8.830;2023-12-14T02:16:21;2.53;;;1.10;;
75760;SDS011;64373;46.136;8.830;2023-12-14T02:18:46;1.77;;;1.20;;
75760;SDS011;64373;46.136;8.830;2023-12-14T02:21:12;2.17;;;1.23;;
75760;SDS011;64373;46.136;8.830;2023-12-14T02:23:43;1.38;;;0.82;;
75760;SDS011;64373;46.136;8.830;2023-12-14T02:26:10;1.38;;;1.05;;
75760;SDS011;64373;46.136;8.830;2023-12-14T02:28:39;2.30;;;0.95;;
75760;SDS011;64373;46.136;8.830;2023-12-14T02:31:05;1.90;;;1.02;;
75760;SDS011;64373;46.136;8.830;2023-12-14T02:33:31;1.58;;;0.95;;
75760;SDS011;64373;46.136;8.830;2023-12-14T02:35:56;1.63;;;0.90;;
75760;SDS011;64373;46.136;8.830;2023-12-14T02:38:22;2.75;;;1.10;;
75760;SDS011;64373;46.136;8.830;2023-12-14T02:40:47;1.38;;;1.15;;
75760;SDS011;64373;46.136;8.830;2023-12-14T02:43:15;1.30;;;1.10;;
75760;SDS011;64373;46.136;8.830;2023-12-14T02:45:41;1.42;;;1.00;;
75760;SDS011;64373;46.136;8.830;2023-12-14T02:48:06;1.90;;;0.98;;
75760;SDS011;64373;46.136;8.830;2023-12-14T02:50:32;1.73;;;1.25;;
75760;SDS011;64373;46.136;8.830;2023-12-14T02:52:57;1.88;;;1.15;;
75760;SDS011;64373;46.136;8.830;2023-12-14T02:55:23;2.08;;;1.20;;
75760;SDS011;64373;46.136;8.830;2023-12-14T02:57:48;1.13;;;0.90;;
75760;SDS011;64373;46.136;8.830;2023-12-14T03:00:14;1.38;;;1.00;;
75760;SDS011;64373;46.136;8.830;2023-12-14T03:02:39;1.10;;;1.00;;
75760;SDS011;64373;46.136;8.830;2023-12-14T03:05:05;1.48;;;1.10;;
75760;SDS011;64373;46.136;8.830;2023-12-14T03:07:31;1.10;;;0.73;;
75760;SDS011;64373;46.136;8.830;2023-12-14T03:09:56;1.40;;;0.60;;
75760;SDS011;64373;46.136;8.830;2023-12-14T03:12:22;0.60;;;0.52;;
75760;SDS011;64373;46.136;8.830;2023-12-14T03:14:47;1.17;;;0.70;;
75760;SDS011;64373;46.136;8.830;2023-12-14T03:17:13;1.40;;;0.70;;
75760;SDS011;64373;46.136;8.830;2023-12-14T03:19:41;1.10;;;0.70;;
75760;SDS011;64373;46.136;8.830;2023-12-14T03:22:07;1.10;;;0.70;;
75760;SDS011;64373;46.136;8.830;2023-12-14T03:24:33;1.58;;;0.82;;
75760;SDS011;64373;46.136;8.830;2023-12-14T03:26:59;1.00;;;0.80;;
75760;SDS011;64373;46.136;8.830;2023-12-14T03:29:26;1.75;;;1.10;;
75760;SDS011;64373;46.136;8.830;2023-12-14T03:31:52;1.50;;;0.90;;
75760;SDS011;64373;46.136;8.830;2023-12-14T03:34:17;1.08;;;0.70;;
75760;SDS011;64373;46.136;8.830;2023-12-14T03:36:43;0.80;;;0.60;;
75760;SDS011;64373;46.136;8.830;2023-12-14T03:39:08;1.27;;;0.50;;
75760;SDS011;64373;46.136;8.830;2023-12-14T03:41:34;1.02;;;0.68;;
75760;SDS011;64373;46.136;8.830;2023-12-14T03:43:59;0.98;;;0.50;;
75760;SDS011;64373;46.136;8.830;2023-12-14T03:46:25;0.50;;;0.40;;
75760;SDS011;64373;46.136;8.830;2023-12-14T03:48:50;0.50;;;0.38;;
75760;SDS011;64373;46.136;8.830;2023-12-14T03:51:19;0.43;;;0.43;;
75760;SDS011;64373;46.136;8.830;2023-12-14T03:53:45;0.57;;;0.40;;
75760;SDS011;64373;46.136;8.830;2023-12-14T03:56:10;1.33;;;0.32;;
75760;SDS011;64373;46.136;8.830;2023-12-14T03:58:36;0.82;;;0.50;;
75760;SDS011;64373;46.136;8.830;2023-12-14T04:01:01;1.23;;;0.45;;
75760;SDS011;64373;46.136;8.830;2023-12-14T04:03:27;1.55;;;0.50;;
75760;SDS011;64373;46.136;8.830;2023-12-14T04:05:53;0.50;;;0.35;;
75760;SDS011;64373;46.136;8.830;2023-12-14T04:08:18;0.55;;;0.50;;
75760;SDS011;64373;46.136;8.830;2023-12-14T04:10:43;0.60;;;0.30;;
75760;SDS011;64373;46.136;8.830;2023-12-14T04:13:09;0.95;;;0.40;;
75760;SDS011;64373;46.136;8.830;2023-12-14T04:15:34;1.10;;;0.40;;
75760;SDS011;64373;46.136;8.830;2023-12-14T04:18:00;0.60;;;0.40;;
75760;SDS011;64373;46.136;8.830;2023-12-14T04:20:25;0.82;;;0.30;;
75760;SDS011;64373;46.136;8.830;2023-12-14T04:22:51;0.35;;;0.30;;
75760;SDS011;64373;46.136;8.830;2023-12-14T04:25:16;0.50;;;0.20;;
75760;SDS011;64373;46.136;8.830;2023-12-14T04:27:42;0.32;;;0.30;;
75760;SDS011;64373;46.136;8.830;2023-12-14T04:30:07;0.80;;;0.40;;
75760;SDS011;64373;46.136;8.830;2023-12-14T04:32:36;0.55;;;0.30;;
75760;SDS011;64373;46.136;8.830;2023-12-14T04:35:02;0.28;;;0.28;;
75760;SDS011;64373;46.136;8.830;2023-12-14T04:37:28;1.65;;;0.30;;
75760;SDS011;64373;46.136;8.830;2023-12-14T04:39:55;1.55;;;0.40;;
75760;SDS011;64373;46.136;8.830;2023-12-14T04:42:20;0.20;;;0.20;;
75760;SDS011;64373;46.136;8.830;2023-12-14T04:44:46;0.32;;;0.30;;
75760;SDS011;64373;46.136;8.830;2023-12-14T04:47:11;0.55;;;0.30;;
75760;SDS011;64373;46.136;8.830;2023-12-14T04:49:37;0.57;;;0.30;;
75760;SDS011;64373;46.136;8.830;2023-12-14T04:52:02;0.22;;;0.20;;
75760;SDS011;64373;46.136;8.830;2023-12-14T04:54:28;0.32;;;0.20;;
75760;SDS011;64373;46.136;8.830;2023-12-14T04:56:53;0.38;;;0.28;;
75760;SDS011;64373;46.136;8.830;2023-12-14T04:59:19;0.60;;;0.32;;
75760;SDS011;64373;46.136;8.830;2023-12-14T05:01:44;0.50;;;0.32;;
75760;SDS011;64373;46.136;8.830;2023-12-14T05:04:10;0.60;;;0.30;;
75760;SDS011;64373;46.136;8.830;2023-12-14T05:06:35;0.77;;;0.32;;
75760;SDS011;64373;46.136;8.830;2023-12-14T05:09:01;0.25;;;0.22;;
75760;SDS011;64373;46.136;8.830;2023-12-14T05:11:29;0.43;;;0.30;;
75760;SDS011;64373;46.136;8.830;2023-12-14T05:13:55;0.88;;;0.30;;
75760;SDS011;64373;46.136;8.830;2023-12-14T05:16:20;0.13;;;0.10;;
75760;SDS011;64373;46.136;8.830;2023-12-14T05:18:46;0.10;;;0.10;;
75760;SDS011;64373;46.136;8.830;2023-12-14T05:21:16;1.23;;;0.20;;
75760;SDS011;64373;46.136;8.830;2023-12-14T05:23:42;0.20;;;0.20;;
75760;SDS011;64373;46.136;8.830;2023-12-14T05:26:08;0.10;;;0.10;;
75760;SDS011;64373;46.136;8.830;2023-12-14T05:28:33;0.35;;;0.30;;
75760;SDS011;64373;46.136;8.830;2023-12-14T05:31:00;0.63;;;0.30;;
75760;SDS011;64373;46.136;8.830;2023-12-14T05:33:26;0.52;;;0.30;;
75760;SDS011;64373;46.136;8.830;2023-12-14T05:35:51;0.35;;;0.17;;
75760;SDS011;64373;46.136;8.830;2023-12-14T05:38:17;0.10;;;0.10;;
75760;SDS011;64373;46.136;8.830;2023-12-14T05:40:42;0.70;;;0.22;;
75760;SDS011;64373;46.136;8.830;2023-12-14T05:43:09;0.52;;;0.28;;
75760;SDS011;64373;46.136;8.830;2023-12-14T05:45:35;0.17;;;0.17;;
75760;SDS011;64373;46.136;8.830;2023-12-14T05:48:01;0.20;;;0.10;;
75760;SDS011;64373;46.136;8.830;2023-12-14T05:50:27;0.10;;;0.10;;
75760;SDS011;64373;46.136;8.830;2023-12-14T05:52:52;0.20;;;0.10;;
75760;SDS011;64373;46.136;8.830;2023-12-14T05:55:18;0.15;;;0.15;;
75760;SDS011;64373;46.136;8.830;2023-12-14T05:57:47;0.50;;;0.20;;
75760;SDS011;64373;46.136;8.830;2023-12-14T06:00:13;0.10;;;0.10;;
75760;SDS011;64373;46.136;8.830;2023-12-14T06:02:39;0.20;;;0.10;;
75760;SDS011;64373;46.136;8.830;2023-12-14T06:05:05;0.10;;;0.10;;
75760;SDS011;64373;46.136;8.830;2023-12-14T06:07:31;0.03;;;0.03;;
75760;SDS011;64373;46.136;8.830;2023-12-14T06:09:57;0.30;;;0.10;;
75760;SDS011;64373;46.136;8.830;2023-12-14T06:12:22;0.15;;;0.15;;
75760;SDS011;64373;46.136;8.830;2023-12-14T06:14:48;0.20;;;0.13;;
75760;SDS011;64373;46.136;8.830;2023-12-14T06:17:15;0.22;;;0.10;;
75760;SDS011;64373;46.136;8.830;2023-12-14T06:19:40;0.20;;;0.17;;
75760;SDS011;64373;46.136;8.830;2023-12-14T06:22:06;0.50;;;0.10;;
75760;SDS011;64373;46.136;8.830;2023-12-14T06:24:31;0.73;;;0.10;;
75760;SDS011;64373;46.136;8.830;2023-12-14T06:26:57;0.10;;;0.10;;
75760;SDS011;64373;46.136;8.830;2023-12-14T06:29:22;1.65;;;0.20;;
75760;SDS011;64373;46.136;8.830;2023-12-14T06:31:48;0.10;;;0.00;;
75760;SDS011;64373;46.136;8.830;2023-12-14T06:34:14;0.10;;;0.00;;
75760;SDS011;64373;46.136;8.830;2023-12-14T06:36:43;0.00;;;0.00;;
75760;SDS011;64373;46.136;8.830;2023-12-14T06:39:09;0.57;;;0.10;;
75760;SDS011;64373;46.136;8.830;2023-12-14T06:41:35;0.10;;;0.00;;
75760;SDS011;64373;46.136;8.830;2023-12-14T06:44:01;0.35;;;0.03;;
75760;SDS011;64373;46.136;8.830;2023-12-14T06:46:26;0.00;;;0.00;;
75760;SDS011;64373;46.136;8.830;2023-12-14T06:48:52;0.10;;;0.00;;
75760;SDS011;64373;46.136;8.830;2023-12-14T06:51:18;0.10;;;0.03;;
75760;SDS011;64373;46.136;8.830;2023-12-14T06:53:44;0.40;;;0.05;;
75760;SDS011;64373;46.136;8.830;2023-12-14T06:56:11;0.10;;;0.10;;
75760;SDS011;64373;46.136;8.830;2023-12-14T06:58:40;0.00;;;0.00;;
75760;SDS011;64373;46.136;8.830;2023-12-14T07:01:06;0.00;;;0.00;;
75760;SDS011;64373;46.136;8.830;2023-12-14T07:03:32;0.00;;;0.00;;
75760;SDS011;64373;46.136;8.830;2023-12-14T07:05:58;0.05;;;0.05;;
75760;SDS011;64373;46.136;8.830;2023-12-14T07:08:24;0.20;;;0.08;;
75760;SDS011;64373;46.136;8.830;2023-12-14T07:10:49;0.05;;;0.03;;
75760;SDS011;64373;46.136;8.830;2023-12-14T07:13:15;0.10;;;0.10;;
75760;SDS011;64373;46.136;8.830;2023-12-14T07:15:40;0.25;;;0.00;;
75760;SDS011;64373;46.136;8.830;2023-12-14T07:18:06;0.00;;;0.00;;
75760;SDS011;64373;46.136;8.830;2023-12-14T07:20:31;0.10;;;0.10;;
75760;SDS011;64373;46.136;8.830;2023-12-14T07:22:57;0.00;;;0.00;;
75760;SDS011;64373;46.136;8.830;2023-12-14T07:25:22;0.20;;;0.10;;
75760;SDS011;64373;46.136;8.830;2023-12-14T07:27:48;0.15;;;0.10;;
75760;SDS011;64373;46.136;8.830;2023-12-14T07:30:13;0.10;;;0.10;;
75760;SDS011;64373;46.136;8.830;2023-12-14T07:32:39;0.08;;;0.08;;
75760;SDS011;64373;46.136;8.830;2023-12-14T07:35:05;0.08;;;0.00;;
75760;SDS011;64373;46.136;8.830;2023-12-14T07:37:31;0.10;;;0.10;;
75760;SDS011;64373;46.136;8.830;2023-12-14T07:39:56;0.10;;;0.10;;
75760;SDS011;64373;46.136;8.830;2023-12-14T07:42:23;0.00;;;0.00;;
75760;SDS011;64373;46.136;8.830;2023-12-14T07:44:49;0.00;;;0.00;;
75760;SDS011;64373;46.136;8.830;2023-12-14T07:47:14;0.10;;;0.00;;
75760;SDS011;64373;46.136;8.830;2023-12-14T07:49:40;0.15;;;0.10;;
75760;SDS011;64373;46.136;8.830;2023-12-14T07:52:05;0.10;;;0.10;;
75760;SDS011;64373;46.136;8.830;2023-12-14T07:54:31;0.00;;;0.00;;
75760;SDS011;64373;46.136;8.830;2023-12-14T07:56:56;0.00;;;0.00;;
75760;SDS011;64373;46.136;8.830;2023-12-14T07:59:22;0.10;;;0.05;;
75760;SDS011;64373;46.136;8.830;2023-12-14T08:01:47;0.10;;;0.00;;
75760;SDS011;64373;46.136;8.830;2023-12-14T08:04:13;0.03;;;0.03;;
75760;SDS011;64373;46.136;8.830;2023-12-14T08:06:39;0.17;;;0.10;;
75760;SDS011;64373;46.136;8.830;2023-12-14T08:09:04;0.30;;;0.10;;
75760;SDS011;64373;46.136;8.830;2023-12-14T08:11:32;0.13;;;0.10;;
75760;SDS011;64373;46.136;8.830;2023-12-14T08:13:57;0.10;;;0.10;;
75760;SDS011;64373;46.136;8.830;2023-12-14T08:16:23;0.10;;;0.03;;
75760;SDS011;64373;46.136;8.830;2023-12-14T08:18:49;0.13;;;0.10;;
75760;SDS011;64373;46.136;8.830;2023-12-14T08:21:14;0.00;;;0.00;;
75760;SDS011;64373;46.136;8.830;2023-12-14T08:23:41;0.00;;;0.00;;
75760;SDS011;64373;46.136;8.830;2023-12-14T08:26:07;0.10;;;0.10;;
75760;SDS011;64373;46.136;8.830;2023-12-14T08:28:33;0.10;;;0.05;;
75760;SDS011;64373;46.136;8.830;2023-12-14T08:30:59;0.00;;;0.00;;
75760;SDS011;64373;46.136;8.830;2023-12-14T08:33:31;0.30;;;0.13;;
75760;SDS011;64373;46.136;8.830;2023-12-14T08:35:57;0.22;;;0.10;;
75760;SDS011;64373;46.136;8.830;2023-12-14T08:38:23;2.10;;;0.10;;
75760;SDS011;64373;46.136;8.830;2023-12-14T08:40:48;0.10;;;0.10;;
75760;SDS011;64373;46.136;8.830;2023-12-14T08:43:14;0.03;;;0.03;;
75760;SDS011;64373;46.136;8.830;2023-12-14T08:45:39;0.00;;;0.00;;
75760;SDS011;64373;46.136;8.830;2023-12-14T08:48:05;0.10;;;0.10;;
75760;SDS011;64373;46.136;8.830;2023-12-14T08:50:31;0.13;;;0.10;;
75760;SDS011;64373;46.136;8.830;2023-12-14T08:52:56;0.10;;;0.10;;
75760;SDS011;64373;46.136;8.830;2023-12-14T08:55:25;0.15;;;0.10;;
75760;SDS011;64373;46.136;8.830;2023-12-14T08:57:51;0.40;;;0.10;;
75760;SDS011;64373;46.136;8.830;2023-12-14T09:00:17;0.25;;;0.10;;
75760;SDS011;64373;46.136;8.830;2023-12-14T09:02:43;0.30;;;0.20;;
75760;SDS011;64373;46.136;8.830;2023-12-14T09:05:11;0.20;;;0.10;;
75760;SDS011;64373;46.136;8.830;2023-12-14T09:07:38;0.25;;;0.03;;
75760;SDS011;64373;46.136;8.830;2023-12-14T09:10:04;0.70;;;0.20;;
75760;SDS011;64373;46.136;8.830;2023-12-14T09:12:30;0.43;;;0.20;;
75760;SDS011;64373;46.136;8.830;2023-12-14T09:14:55;0.10;;;0.10;;
75760;SDS011;64373;46.136;8.830;2023-12-14T09:17:21;0.75;;;0.25;;
75760;SDS011;64373;46.136;8.830;2023-12-14T09:19:46;0.30;;;0.20;;
75760;SDS011;64373;46.136;8.830;2023-12-14T09:22:12;0.30;;;0.10;;
75760;SDS011;64373;46.136;8.830;2023-12-14T09:24:37;0.15;;;0.08;;
75760;SDS011;64373;46.136;8.830;2023-12-14T09:27:03;0.20;;;0.10;;
75760;SDS011;64373;46.136;8.830;2023-12-14T09:29:28;0.05;;;0.00;;
75760;SDS011;64373;46.136;8.830;2023-12-14T09:31:54;0.43;;;0.03;;
75760;SDS011;64373;46.136;8.830;2023-12-14T09:34:19;0.13;;;0.13;;
75760;SDS011;64373;46.136;8.830;2023-12-14T09:36:45;0.10;;;0.10;;
75760;SDS011;64373;46.136;8.830;2023-12-14T09:39:10;0.00;;;0.00;;
75760;SDS011;64373;46.136;8.830;2023-12-14T09:41:39;0.05;;;0.00;;
75760;SDS011;64373;46.136;8.830;2023-12-14T09:44:05;0.00;;;0.00;;
75760;SDS011;64373;46.136;8.830;2023-12-14T09:46:33;0.10;;;0.10;;
75760;SDS011;64373;46.136;8.830;2023-12-14T09:49:01;0.10;;;0.00;;
75760;SDS011;64373;46.136;8.830;2023-12-14T09:51:27;0.20;;;0.10;;
75760;SDS011;64373;46.136;8.830;2023-12-14T09:53:52;0.13;;;0.10;;
75760;SDS011;64373;46.136;8.830;2023-12-14T09:56:24;0.30;;;0.10;;
75760;SDS011;64373;46.136;8.830;2023-12-14T09:58:50;0.10;;;0.00;;
75760;SDS011;64373;46.136;8.830;2023-12-14T10:01:22;0.47;;;0.10;;
75760;SDS011;64373;46.136;8.830;2023-12-14T10:04:10;0.57;;;0.20;;
75760;SDS011;64373;46.136;8.830;2023-12-14T10:06:38;0.38;;;0.20;;
75760;SDS011;64373;46.136;8.830;2023-12-14T10:09:04;0.73;;;0.20;;
75760;SDS011;64373;46.136;8.830;2023-12-14T10:11:34;0.15;;;0.10;;
75760;SDS011;64373;46.136;8.830;2023-12-14T10:14:03;0.10;;;0.10;;
75760;SDS011;64373;46.136;8.830;2023-12-14T10:16:51;0.10;;;0.10;;
75760;SDS011;64373;46.136;8.830;2023-12-14T10:19:17;0.30;;;0.30;;
75760;SDS011;64373;46.136;8.830;2023-12-14T10:21:43;0.98;;;0.68;;
75760;SDS011;64373;46.136;8.830;2023-12-14T10:24:09;0.60;;;0.47;;
75760;SDS011;64373;46.136;8.830;2023-12-14T10:26:35;0.90;;;0.40;;
75760;SDS011;64373;46.136;8.830;2023-12-14T10:29:01;0.25;;;0.20;;
75760;SDS011;64373;46.136;8.830;2023-12-14T10:31:29;0.50;;;0.30;;
75760;SDS011;64373;46.136;8.830;2023-12-14T10:33:55;0.15;;;0.10;;
75760;SDS011;64373;46.136;8.830;2023-12-14T10:36:21;0.30;;;0.10;;
75760;SDS011;64373;46.136;8.830;2023-12-14T10:38:53;0.88;;;0.73;;
75760;SDS011;64373;46.136;8.830;2023-12-14T10:41:22;0.68;;;0.50;;
75760;SDS011;64373;46.136;8.830;2023-12-14T10:43:49;0.38;;;0.20;;
75760;SDS011;64373;46.136;8.830;2023-12-14T10:46:16;0.30;;;0.20;;
75760;SDS011;64373;46.136;8.830;2023-12-14T10:48:42;0.30;;;0.20;;
75760;SDS011;64373;46.136;8.830;2023-12-14T10:51:10;0.20;;;0.20;;
75760;SDS011;64373;46.136;8.830;2023-12-14T10:53:36;1.17;;;0.57;;
75760;SDS011;64373;46.136;8.830;2023-12-14T10:56:03;0.60;;;0.35;;
75760;SDS011;64373;46.136;8.830;2023-12-14T10:58:47;0.80;;;0.50;;
75760;SDS011;64373;46.136;8.830;2023-12-14T11:01:21;0.50;;;0.50;;
75760;SDS011;64373;46.136;8.830;2023-12-14T11:03:49;0.85;;;0.30;;
75760;SDS011;64373;46.136;8.830;2023-12-14T11:06:21;0.40;;;0.20;;
75760;SDS011;64373;46.136;8.830;2023-12-14T11:08:56;0.10;;;0.10;;
75760;SDS011;64373;46.136;8.830;2023-12-14T11:11:25;0.45;;;0.20;;
75760;SDS011;64373;46.136;8.830;2023-12-14T11:13:53;0.35;;;0.20;;
75760;SDS011;64373;46.136;8.830;2023-12-14T11:16:22;0.10;;;0.00;;
75760;SDS011;64373;46.136;8.830;2023-12-14T11:18:48;0.10;;;0.10;;
75760;SDS011;64373;46.136;8.830;2023-12-14T11:21:19;0.00;;;0.00;;
75760;SDS011;64373;46.136;8.830;2023-12-14T11:23:47;0.00;;;0.00;;
75760;SDS011;64373;46.136;8.830;2023-12-14T11:26:20;0.28;;;0.10;;
75760;SDS011;64373;46.136;8.830;2023-12-14T11:28:47;0.00;;;0.00;;
75760;SDS011;64373;46.136;8.830;2023-12-14T11:31:13;0.30;;;0.10;;
75760;SDS011;64373;46.136;8.830;2023-12-14T11:33:39;0.20;;;0.20;;
75760;SDS011;64373;46.136;8.830;2023-12-14T11:36:05;0.20;;;0.10;;
75760;SDS011;64373;46.136;8.830;2023-12-14T11:38:33;0.17;;;0.10;;
75760;SDS011;64373;46.136;8.830;2023-12-14T11:41:00;0.00;;;0.00;;
75760;SDS011;64373;46.136;8.830;2023-12-14T11:43:25;0.00;;;0.00;;
75760;SDS011;64373;46.136;8.830;2023-12-14T11:45:51;0.00;;;0.00;;
75760;SDS011;64373;46.136;8.830;2023-12-14T11:48:17;0.05;;;0.05;;
75760;SDS011;64373;46.136;8.830;2023-12-14T11:50:45;0.20;;;0.10;;
75760;SDS011;64373;46.136;8.830;2023-12-14T11:53:11;0.20;;;0.10;;
75760;SDS011;64373;46.136;8.830;2023-12-14T11:55:38;0.10;;;0.10;;
75760;SDS011;64373;46.136;8.830;2023-12-14T11:58:04;0.10;;;0.08;;
75760;SDS011;64373;46.136;8.830;2023-12-14T12:00:30;0.30;;;0.00;;
75760;SDS011;64373;46.136;8.830;2023-12-14T12:05:41;0.00;;;0.00;;
75760;SDS011;64373;46.136;8.830;2023-12-14T12:10:33;0.20;;;0.00;;
75760;SDS011;64373;46.136;8.830;2023-12-14T12:13:03;0.00;;;0.00;;
75760;SDS011;64373;46.136;8.830;2023-12-14T12:15:32;0.10;;;0.00;;
75760;SDS011;64373;46.136;8.830;2023-12-14T12:18:02;0.00;;;0.00;;
75760;SDS011;64373;46.136;8.830;2023-12-14T12:20:31;0.17;;;0.00;;
75760;SDS011;64373;46.136;8.830;2023-12-14T12:22:57;0.00;;;0.00;;
75760;SDS011;64373;46.136;8.830;2023-12-14T12:25:23;0.13;;;0.10;;
75760;SDS011;64373;46.136;8.830;2023-12-14T12:27:48;0.10;;;0.00;;
75760;SDS011;64373;46.136;8.830;2023-12-14T12:30:14;0.08;;;0.00;;
75760;SDS011;64373;46.136;8.830;2023-12-14T12:32:40;0.00;;;0.00;;
75760;SDS011;64373;46.136;8.830;2023-12-14T12:35:07;0.00;;;0.00;;
75760;SDS011;64373;46.136;8.830;2023-12-14T12:37:33;0.20;;;0.10;;
75760;SDS011;64373;46.136;8.830;2023-12-14T12:39:59;0.00;;;0.00;;
75760;SDS011;64373;46.136;8.830;2023-12-14T12:42:24;0.10;;;0.10;;
75760;SDS011;64373;46.136;8.830;2023-12-14T12:44:50;0.00;;;0.00;;
75760;SDS011;64373;46.136;8.830;2023-12-14T12:47:16;0.50;;;0.25;;
75760;SDS011;64373;46.136;8.830;2023-12-14T12:49:42;0.30;;;0.30;;
75760;SDS011;64373;46.136;8.830;2023-12-14T12:52:08;0.20;;;0.20;;
75760;SDS011;64373;46.136;8.830;2023-12-14T12:54:34;0.55;;;0.30;;
75760;SDS011;64373;46.136;8.830;2023-12-14T12:56:59;0.00;;;0.00;;
75760;SDS011;64373;46.136;8.830;2023-12-14T12:59:25;0.00;;;0.00;;
75760;SDS011;64373;46.136;8.830;2023-12-14T13:01:50;0.00;;;0.00;;
75760;SDS011;64373;46.136;8.830;2023-12-14T13:04:22;0.00;;;0.00;;
75760;SDS011;64373;46.136;8.830;2023-12-14T13:06:48;0.20;;;0.03;;
75760;SDS011;64373;46.136;8.830;2023-12-14T13:09:17;0.20;;;0.00;;
75760;SDS011;64373;46.136;8.830;2023-12-14T13:11:44;0.10;;;0.00;;
75760;SDS011;64373;46.136;8.830;2023-12-14T13:14:10;0.00;;;0.00;;
75760;SDS011;64373;46.136;8.830;2023-12-14T13:16:36;0.10;;;0.10;;
75760;SDS011;64373;46.136;8.830;2023-12-14T13:19:02;0.00;;;0.00;;
75760;SDS011;64373;46.136;8.830;2023-12-14T13:21:35;0.00;;;0.00;;
75760;SDS011;64373;46.136;8.830;2023-12-14T13:24:01;0.00;;;0.00;;
75760;SDS011;64373;46.136;8.830;2023-12-14T13:26:27;0.00;;;0.00;;
75760;SDS011;64373;46.136;8.830;2023-12-14T13:28:52;0.00;;;0.00;;
75760;SDS011;64373;46.136;8.830;2023-12-14T13:31:18;0.00;;;0.00;;
75760;SDS011;64373;46.136;8.830;2023-12-14T13:33:45;0.00;;;0.00;;
75760;SDS011;64373;46.136;8.830;2023-12-14T13:36:11;0.35;;;0.00;;
75760;SDS011;64373;46.136;8.830;2023-12-14T13:38:37;0.00;;;0.00;;
75760;SDS011;64373;46.136;8.830;2023-12-14T13:41:02;0.00;;;0.00;;
75760;SDS011;64373;46.136;8.830;2023-12-14T13:43:28;0.00;;;0.00;;
75760;SDS011;64373;46.136;8.830;2023-12-14T13:45:54;0.00;;;0.00;;
75760;SDS011;64373;46.136;8.830;2023-12-14T13:48:23;0.00;;;0.00;;
75760;SDS011;64373;46.136;8.830;2023-12-14T13:50:49;0.00;;;0.00;;
75760;SDS011;64373;46.136;8.830;2023-12-14T13:53:15;0.00;;;0.00;;
75760;SDS011;64373;46.136;8.830;2023-12-14T13:55:41;0.00;;;0.00;;
75760;SDS011;64373;46.136;8.830;2023-12-14T13:58:06;0.93;;;0.10;;
75760;SDS011;64373;46.136;8.830;2023-12-14T14:00:32;0.00;;;0.00;;
75760;SDS011;64373;46.136;8.830;2023-12-14T14:02:59;0.00;;;0.00;;
75760;SDS011;64373;46.136;8.830;2023-12-14T14:05:25;0.03;;;0.00;;
75760;SDS011;64373;46.136;8.830;2023-12-14T14:07:52;0.00;;;0.00;;
75760;SDS011;64373;46.136;8.830;2023-12-14T14:10:18;0.00;;;0.00;;
75760;SDS011;64373;46.136;8.830;2023-12-14T14:12:44;0.00;;;0.00;;
75760;SDS011;64373;46.136;8.830;2023-12-14T14:15:10;0.00;;;0.00;;
75760;SDS011;64373;46.136;8.830;2023-12-14T14:17:36;0.08;;;0.00;;
75760;SDS011;64373;46.136;8.830;2023-12-14T14:20:02;0.00;;;0.00;;
75760;SDS011;64373;46.136;8.830;2023-12-14T14:22:27;0.30;;;0.00;;
75760;SDS011;64373;46.136;8.830;2023-12-14T14:24:53;0.00;;;0.00;;
75760;SDS011;64373;46.136;8.830;2023-12-14T14:27:19;0.00;;;0.00;;
75760;SDS011;64373;46.136;8.830;2023-12-14T14:29:44;0.00;;;0.00;;
75760;SDS011;64373;46.136;8.830;2023-12-14T14:32:10;0.00;;;0.00;;
75760;SDS011;64373;46.136;8.830;2023-12-14T14:34:35;0.00;;;0.00;;
75760;SDS011;64373;46.136;8.830;2023-12-14T14:37:01;0.00;;;0.00;;
75760;SDS011;64373;46.136;8.830;2023-12-14T14:39:26;0.00;;;0.00;;
75760;SDS011;64373;46.136;8.830;2023-12-14T14:41:52;0.00;;;0.00;;
75760;SDS011;64373;46.136;8.830;2023-12-14T14:44:18;0.00;;;0.00;;
75760;SDS011;64373;46.136;8.830;2023-12-14T14:46:43;0.00;;;0.00;;